Details From KFRG - Republic
To KBKL - Burke Lakefront
Flight Number -
Tags Decoded
Created
Modified
Stats Distance 381 nm / 706 km
Max Altitude 0 ft / 0 m
Waypoints 5
Social Downloads 1
Likes 0
Share VATSIM

Download

Looking for another format? Having issues loading an existing format? Contact us
Advertisement - Login to hide

Notes

Decoded

Route

KFRG LGA BIREW YACUT KBKL

ID Type Via Altitude Latitude Longitude Leg Dist Tot Dist Heading (true) Name
O KFRG APT - 0 ft / 0 m 40.72176˚ -73.41427˚ - 0 nm - -
LGA VOR - 0 ft / 0 m 40.78794˚ -73.87714˚ 21 nm 21 nm 281° / 281° -
BIREW FIX - 0 ft / 0 m 41.49867˚ -80.25333˚ 291 nm 312 nm 281° / 276° -
YACUT FIX - 0 ft / 0 m 41.65297˚ -81.43353˚ 53 nm 366 nm 280° / 280° -
O KBKL APT - 0 ft / 0 m 41.51269˚ -81.69169˚ 14 nm 381 nm 234° / 234° -

Altitude Profile

Advertisement - Login to hide

Weather


0- 5 10 15 20 25 30 35+ Temperature / ° C

Clouds and Precipitation
Forecast for 2018-05-25 12:00 UTC. Updated 2 hours ago

Ground ~20,000 ft ~40,000 ft Winds

KFRG

Details ICAO KFRG
Name REPUBLIC
Region United States
Timezone America/New_York (UTC-4.0)
Stats Elevation 82 ft / 25 m (AMSL)
Location 40.728829° -73.413506°
Runways 2
Magnetic Variation 13.180° W

METAR

KFRG 251253Z 23007KT 10SM CLR 22/13 A3003 RMK AO2 SLP169 T02170133

Decode

TAF

Not found

Departure Runways

ID Width Length Bearing (true) Bearing (mag) Surface Threshold Offset Overrun Length
01 150 ft / 46 m 5,525 ft / 1,684 m 359.19° 12.37° Asphalt 0 ft / 0 m 0 ft / 0 m
14 150 ft / 46 m 6,823 ft / 2,080 m 132.34° 145.52° Asphalt 660 ft / 201 m 0 ft / 0 m
19 150 ft / 46 m 5,525 ft / 1,684 m 179.19° 192.37° Asphalt 789 ft / 240 m 0 ft / 0 m
32 150 ft / 46 m 6,823 ft / 2,080 m 312.35° 325.53° Asphalt 0 ft / 0 m 0 ft / 0 m

KBKL

Details ICAO KBKL (BKL)
Name Burke Lakefront
Region United States
Timezone America/New_York (UTC-4.0)
Stats Elevation 583 ft / 178 m (AMSL)
Location 41.517422° -81.683358°
Runways 2
Magnetic Variation 8.378° W

METAR

KBKL 251253Z 17007KT 10SM CLR 22/11 A3000 RMK AO2 SLP156 T02220111

Decode

TAF

Not found

Destination Runways

ID Width Length Bearing (true) Bearing (mag) Surface Threshold Offset Overrun Length
06L 150 ft / 46 m 6,190 ft / 1,887 m 57.81° 66.19° Asphalt 265 ft / 81 m 0 ft / 0 m
06R 100 ft / 30 m 5,190 ft / 1,582 m 57.82° 66.20° Asphalt 267 ft / 81 m 0 ft / 0 m
24L 100 ft / 30 m 5,190 ft / 1,582 m 237.83° 246.21° Asphalt 0 ft / 0 m 0 ft / 0 m
24R 150 ft / 46 m 6,190 ft / 1,887 m 237.82° 246.20° Asphalt 0 ft / 0 m 0 ft / 0 m

Approach Navaids

Runway Type Ident Frequency Range Bearing (true) Bearing (mag) Slope Elevation
24R Localiser IBFT 109.75 MHz 18 nm / 33 km 237.81° 246.19° - 586 ft / 179 m (AMSL)
24R Glidescope IBFT 109.75 MHz 18 nm / 33 km 237.81° 246.19° 3.00° 586 ft / 179 m (AMSL)
24R DME IBFT 109.75 MHz 18 nm / 33 km - - - 586 ft / 179 m (AMSL)